sensor_id;sensor_type;location;lat;lon;timestamp;P1;durP1;ratioP1;P2;durP2;ratioP2
9665;SDS011;4871;52.004;5.924;2023-04-24T00:00:06;4.10;;;3.80;;
9665;SDS011;4871;52.004;5.924;2023-04-24T00:01:01;4.10;;;3.80;;
9665;SDS011;4871;52.004;5.924;2023-04-24T00:02:06;4.10;;;3.80;;
9665;SDS011;4871;52.004;5.924;2023-04-24T00:03:00;4.10;;;3.80;;
9665;SDS011;4871;52.004;5.924;2023-04-24T00:04:03;4.10;;;3.80;;
9665;SDS011;4871;52.004;5.924;2023-04-24T00:05:02;4.10;;;3.80;;
9665;SDS011;4871;52.004;5.924;2023-04-24T00:06:05;4.10;;;3.80;;
9665;SDS011;4871;52.004;5.924;2023-04-24T00:07:00;4.10;;;3.80;;
9665;SDS011;4871;52.004;5.924;2023-04-24T00:08:03;4.10;;;3.80;;
9665;SDS011;4871;52.004;5.924;2023-04-24T00:09:00;4.10;;;3.80;;
9665;SDS011;4871;52.004;5.924;2023-04-24T00:10:05;4.10;;;3.80;;
9665;SDS011;4871;52.004;5.924;2023-04-24T00:11:00;4.10;;;3.80;;
9665;SDS011;4871;52.004;5.924;2023-04-24T00:12:05;4.10;;;3.80;;
9665;SDS011;4871;52.004;5.924;2023-04-24T00:13:00;4.10;;;3.80;;
9665;SDS011;4871;52.004;5.924;2023-04-24T00:14:04;4.10;;;3.80;;
9665;SDS011;4871;52.004;5.924;2023-04-24T00:15:00;4.10;;;3.80;;
9665;SDS011;4871;52.004;5.924;2023-04-24T00:16:05;4.10;;;3.80;;
9665;SDS011;4871;52.004;5.924;2023-04-24T00:17:00;4.10;;;3.80;;
9665;SDS011;4871;52.004;5.924;2023-04-24T00:18:04;4.10;;;3.80;;
9665;SDS011;4871;52.004;5.924;2023-04-24T00:19:00;4.10;;;3.80;;
9665;SDS011;4871;52.004;5.924;2023-04-24T00:20:07;4.10;;;3.80;;
9665;SDS011;4871;52.004;5.924;2023-04-24T00:21:00;4.10;;;3.80;;
9665;SDS011;4871;52.004;5.924;2023-04-24T00:22:05;4.70;;;4.40;;
9665;SDS011;4871;52.004;5.924;2023-04-24T00:23:00;4.70;;;4.40;;
9665;SDS011;4871;52.004;5.924;2023-04-24T00:24:04;4.70;;;4.40;;
9665;SDS011;4871;52.004;5.924;2023-04-24T00:25:00;4.70;;;4.40;;
9665;SDS011;4871;52.004;5.924;2023-04-24T00:26:03;4.70;;;4.40;;
9665;SDS011;4871;52.004;5.924;2023-04-24T00:27:01;4.70;;;4.40;;
9665;SDS011;4871;52.004;5.924;2023-04-24T00:28:04;4.70;;;4.40;;
9665;SDS011;4871;52.004;5.924;2023-04-24T00:29:00;4.70;;;4.40;;
9665;SDS011;4871;52.004;5.924;2023-04-24T00:30:05;4.70;;;4.40;;
9665;SDS011;4871;52.004;5.924;2023-04-24T00:31:00;4.70;;;4.40;;
9665;SDS011;4871;52.004;5.924;2023-04-24T00:32:03;4.70;;;4.40;;
9665;SDS011;4871;52.004;5.924;2023-04-24T00:33:00;4.70;;;4.40;;
9665;SDS011;4871;52.004;5.924;2023-04-24T00:34:03;4.70;;;4.40;;
9665;SDS011;4871;52.004;5.924;2023-04-24T00:35:00;4.70;;;4.40;;
9665;SDS011;4871;52.004;5.924;2023-04-24T00:36:03;4.70;;;4.40;;
9665;SDS011;4871;52.004;5.924;2023-04-24T00:37:00;4.70;;;4.40;;
9665;SDS011;4871;52.004;5.924;2023-04-24T00:38:04;4.70;;;4.40;;
9665;SDS011;4871;52.004;5.924;2023-04-24T00:39:00;4.70;;;4.40;;
9665;SDS011;4871;52.004;5.924;2023-04-24T00:40:04;4.70;;;4.40;;
9665;SDS011;4871;52.004;5.924;2023-04-24T00:41:00;4.70;;;4.40;;
9665;SDS011;4871;52.004;5.924;2023-04-24T00:42:06;4.70;;;4.40;;
9665;SDS011;4871;52.004;5.924;2023-04-24T00:43:00;4.70;;;4.40;;
9665;SDS011;4871;52.004;5.924;2023-04-24T00:44:04;4.70;;;4.40;;
9665;SDS011;4871;52.004;5.924;2023-04-24T00:45:00;4.70;;;4.40;;
9665;SDS011;4871;52.004;5.924;2023-04-24T00:46:03;4.70;;;4.40;;
9665;SDS011;4871;52.004;5.924;2023-04-24T00:47:00;4.70;;;4.40;;
9665;SDS011;4871;52.004;5.924;2023-04-24T00:48:03;4.70;;;4.40;;
9665;SDS011;4871;52.004;5.924;2023-04-24T00:49:00;4.70;;;4.40;;
9665;SDS011;4871;52.004;5.924;2023-04-24T00:50:04;4.70;;;4.40;;
9665;SDS011;4871;52.004;5.924;2023-04-24T00:51:00;4.70;;;4.40;;
9665;SDS011;4871;52.004;5.924;2023-04-24T00:52:08;3.70;;;3.50;;
9665;SDS011;4871;52.004;5.924;2023-04-24T00:53:00;3.70;;;3.50;;
9665;SDS011;4871;52.004;5.924;2023-04-24T00:54:05;3.70;;;3.50;;
9665;SDS011;4871;52.004;5.924;2023-04-24T00:55:00;3.70;;;3.50;;
9665;SDS011;4871;52.004;5.924;2023-04-24T00:56:05;3.70;;;3.50;;
9665;SDS011;4871;52.004;5.924;2023-04-24T00:57:01;3.70;;;3.50;;
9665;SDS011;4871;52.004;5.924;2023-04-24T00:58:04;3.70;;;3.50;;
9665;SDS011;4871;52.004;5.924;2023-04-24T00:59:00;3.70;;;3.50;;
9665;SDS011;4871;52.004;5.924;2023-04-24T01:00:06;3.70;;;3.50;;
9665;SDS011;4871;52.004;5.924;2023-04-24T01:01:00;3.70;;;3.50;;
9665;SDS011;4871;52.004;5.924;2023-04-24T01:02:05;3.70;;;3.50;;
9665;SDS011;4871;52.004;5.924;2023-04-24T01:03:00;3.70;;;3.50;;
9665;SDS011;4871;52.004;5.924;2023-04-24T01:04:07;3.70;;;3.50;;
9665;SDS011;4871;52.004;5.924;2023-04-24T01:05:00;3.70;;;3.50;;
9665;SDS011;4871;52.004;5.924;2023-04-24T01:06:04;3.70;;;3.50;;
9665;SDS011;4871;52.004;5.924;2023-04-24T01:07:00;3.70;;;3.50;;
9665;SDS011;4871;52.004;5.924;2023-04-24T01:08:03;3.70;;;3.50;;
9665;SDS011;4871;52.004;5.924;2023-04-24T01:09:00;3.70;;;3.50;;
9665;SDS011;4871;52.004;5.924;2023-04-24T01:10:03;3.70;;;3.50;;
9665;SDS011;4871;52.004;5.924;2023-04-24T01:11:00;3.70;;;3.50;;
9665;SDS011;4871;52.004;5.924;2023-04-24T01:12:05;3.70;;;3.50;;
9665;SDS011;4871;52.004;5.924;2023-04-24T01:13:00;3.70;;;3.50;;
9665;SDS011;4871;52.004;5.924;2023-04-24T01:14:03;3.70;;;3.50;;
9665;SDS011;4871;52.004;5.924;2023-04-24T01:15:00;3.70;;;3.50;;
9665;SDS011;4871;52.004;5.924;2023-04-24T01:16:05;3.70;;;3.50;;
9665;SDS011;4871;52.004;5.924;2023-04-24T01:17:00;3.70;;;3.50;;
9665;SDS011;4871;52.004;5.924;2023-04-24T01:18:04;3.70;;;3.50;;
9665;SDS011;4871;52.004;5.924;2023-04-24T01:19:00;3.70;;;3.50;;
9665;SDS011;4871;52.004;5.924;2023-04-24T01:20:06;3.70;;;3.50;;
9665;SDS011;4871;52.004;5.924;2023-04-24T01:21:00;3.70;;;3.50;;
9665;SDS011;4871;52.004;5.924;2023-04-24T01:22:08;5.20;;;4.70;;
9665;SDS011;4871;52.004;5.924;2023-04-24T01:23:00;5.20;;;4.70;;
9665;SDS011;4871;52.004;5.924;2023-04-24T01:24:05;5.20;;;4.70;;
9665;SDS011;4871;52.004;5.924;2023-04-24T01:25:00;5.20;;;4.70;;
9665;SDS011;4871;52.004;5.924;2023-04-24T01:26:04;5.20;;;4.70;;
9665;SDS011;4871;52.004;5.924;2023-04-24T01:27:01;5.20;;;4.70;;
9665;SDS011;4871;52.004;5.924;2023-04-24T01:28:03;5.20;;;4.70;;
9665;SDS011;4871;52.004;5.924;2023-04-24T01:29:00;5.20;;;4.70;;
9665;SDS011;4871;52.004;5.924;2023-04-24T01:30:05;5.20;;;4.70;;
9665;SDS011;4871;52.004;5.924;2023-04-24T01:31:00;5.20;;;4.70;;
9665;SDS011;4871;52.004;5.924;2023-04-24T01:32:05;5.20;;;4.70;;
9665;SDS011;4871;52.004;5.924;2023-04-24T01:33:00;5.20;;;4.70;;
9665;SDS011;4871;52.004;5.924;2023-04-24T01:34:05;5.20;;;4.70;;
9665;SDS011;4871;52.004;5.924;2023-04-24T01:35:00;5.20;;;4.70;;
9665;SDS011;4871;52.004;5.924;2023-04-24T01:36:03;5.20;;;4.70;;
9665;SDS011;4871;52.004;5.924;2023-04-24T01:37:00;5.20;;;4.70;;
9665;SDS011;4871;52.004;5.924;2023-04-24T01:38:05;5.20;;;4.70;;
9665;SDS011;4871;52.004;5.924;2023-04-24T01:39:00;5.20;;;4.70;;
9665;SDS011;4871;52.004;5.924;2023-04-24T01:40:05;5.20;;;4.70;;
9665;SDS011;4871;52.004;5.924;2023-04-24T01:41:00;5.20;;;4.70;;
9665;SDS011;4871;52.004;5.924;2023-04-24T01:42:04;5.20;;;4.70;;
9665;SDS011;4871;52.004;5.924;2023-04-24T01:43:00;5.20;;;4.70;;
9665;SDS011;4871;52.004;5.924;2023-04-24T01:44:04;5.20;;;4.70;;
9665;SDS011;4871;52.004;5.924;2023-04-24T01:45:00;5.20;;;4.70;;
9665;SDS011;4871;52.004;5.924;2023-04-24T01:46:04;5.20;;;4.70;;
9665;SDS011;4871;52.004;5.924;2023-04-24T01:47:00;5.20;;;4.70;;
9665;SDS011;4871;52.004;5.924;2023-04-24T01:48:04;5.20;;;4.70;;
9665;SDS011;4871;52.004;5.924;2023-04-24T01:49:00;5.20;;;4.70;;
9665;SDS011;4871;52.004;5.924;2023-04-24T01:50:05;5.20;;;4.70;;
9665;SDS011;4871;52.004;5.924;2023-04-24T01:51:00;5.20;;;4.70;;
9665;SDS011;4871;52.004;5.924;2023-04-24T01:52:03;5.20;;;4.80;;
9665;SDS011;4871;52.004;5.924;2023-04-24T01:53:00;5.20;;;4.80;;
9665;SDS011;4871;52.004;5.924;2023-04-24T01:54:03;5.20;;;4.80;;
9665;SDS011;4871;52.004;5.924;2023-04-24T01:55:00;5.20;;;4.80;;
9665;SDS011;4871;52.004;5.924;2023-04-24T01:56:03;5.20;;;4.80;;
9665;SDS011;4871;52.004;5.924;2023-04-24T01:57:01;5.20;;;4.80;;
9665;SDS011;4871;52.004;5.924;2023-04-24T01:58:03;5.20;;;4.80;;
9665;SDS011;4871;52.004;5.924;2023-04-24T01:59:00;5.20;;;4.80;;
9665;SDS011;4871;52.004;5.924;2023-04-24T02:00:07;5.20;;;4.80;;
9665;SDS011;4871;52.004;5.924;2023-04-24T02:01:00;5.20;;;4.80;;
9665;SDS011;4871;52.004;5.924;2023-04-24T02:02:04;5.20;;;4.80;;
9665;SDS011;4871;52.004;5.924;2023-04-24T02:03:01;5.20;;;4.80;;
9665;SDS011;4871;52.004;5.924;2023-04-24T02:04:05;5.20;;;4.80;;
9665;SDS011;4871;52.004;5.924;2023-04-24T02:05:00;5.20;;;4.80;;
9665;SDS011;4871;52.004;5.924;2023-04-24T02:06:04;5.20;;;4.80;;
9665;SDS011;4871;52.004;5.924;2023-04-24T02:07:00;5.20;;;4.80;;
9665;SDS011;4871;52.004;5.924;2023-04-24T02:08:04;5.20;;;4.80;;
9665;SDS011;4871;52.004;5.924;2023-04-24T02:09:00;5.20;;;4.80;;
9665;SDS011;4871;52.004;5.924;2023-04-24T02:10:04;5.20;;;4.80;;
9665;SDS011;4871;52.004;5.924;2023-04-24T02:11:01;5.20;;;4.80;;
9665;SDS011;4871;52.004;5.924;2023-04-24T02:12:04;5.20;;;4.80;;
9665;SDS011;4871;52.004;5.924;2023-04-24T02:13:00;5.20;;;4.80;;
9665;SDS011;4871;52.004;5.924;2023-04-24T02:14:04;5.20;;;4.80;;
9665;SDS011;4871;52.004;5.924;2023-04-24T02:15:00;5.20;;;4.80;;
9665;SDS011;4871;52.004;5.924;2023-04-24T02:16:05;5.20;;;4.80;;
9665;SDS011;4871;52.004;5.924;2023-04-24T02:17:00;5.20;;;4.80;;
9665;SDS011;4871;52.004;5.924;2023-04-24T02:18:04;5.20;;;4.80;;
9665;SDS011;4871;52.004;5.924;2023-04-24T02:19:00;5.20;;;4.80;;
9665;SDS011;4871;52.004;5.924;2023-04-24T02:20:05;5.20;;;4.80;;
9665;SDS011;4871;52.004;5.924;2023-04-24T02:21:00;5.20;;;4.80;;
9665;SDS011;4871;52.004;5.924;2023-04-24T02:22:04;6.40;;;5.80;;
9665;SDS011;4871;52.004;5.924;2023-04-24T02:23:00;6.40;;;5.80;;
9665;SDS011;4871;52.004;5.924;2023-04-24T02:24:04;6.40;;;5.80;;
9665;SDS011;4871;52.004;5.924;2023-04-24T02:25:00;6.40;;;5.80;;
9665;SDS011;4871;52.004;5.924;2023-04-24T02:26:04;6.40;;;5.80;;
9665;SDS011;4871;52.004;5.924;2023-04-24T02:27:00;6.40;;;5.80;;
9665;SDS011;4871;52.004;5.924;2023-04-24T02:28:04;6.40;;;5.80;;
9665;SDS011;4871;52.004;5.924;2023-04-24T02:29:00;6.40;;;5.80;;
9665;SDS011;4871;52.004;5.924;2023-04-24T02:30:05;6.40;;;5.80;;
9665;SDS011;4871;52.004;5.924;2023-04-24T02:31:00;6.40;;;5.80;;
9665;SDS011;4871;52.004;5.924;2023-04-24T02:32:04;6.40;;;5.80;;
9665;SDS011;4871;52.004;5.924;2023-04-24T02:33:00;6.40;;;5.80;;
9665;SDS011;4871;52.004;5.924;2023-04-24T02:34:03;6.40;;;5.80;;
9665;SDS011;4871;52.004;5.924;2023-04-24T02:35:00;6.40;;;5.80;;
9665;SDS011;4871;52.004;5.924;2023-04-24T02:36:03;6.40;;;5.80;;
9665;SDS011;4871;52.004;5.924;2023-04-24T02:37:00;6.40;;;5.80;;
9665;SDS011;4871;52.004;5.924;2023-04-24T02:38:04;6.40;;;5.80;;
9665;SDS011;4871;52.004;5.924;2023-04-24T02:39:01;6.40;;;5.80;;
9665;SDS011;4871;52.004;5.924;2023-04-24T02:40:06;6.40;;;5.80;;
9665;SDS011;4871;52.004;5.924;2023-04-24T02:41:00;6.40;;;5.80;;
9665;SDS011;4871;52.004;5.924;2023-04-24T02:42:04;6.40;;;5.80;;
9665;SDS011;4871;52.004;5.924;2023-04-24T02:43:00;6.40;;;5.80;;
9665;SDS011;4871;52.004;5.924;2023-04-24T02:44:04;6.40;;;5.80;;
9665;SDS011;4871;52.004;5.924;2023-04-24T02:45:00;6.40;;;5.80;;
9665;SDS011;4871;52.004;5.924;2023-04-24T02:46:04;6.40;;;5.80;;
9665;SDS011;4871;52.004;5.924;2023-04-24T02:47:00;6.40;;;5.80;;
9665;SDS011;4871;52.004;5.924;2023-04-24T02:48:04;6.40;;;5.80;;
9665;SDS011;4871;52.004;5.924;2023-04-24T02:49:00;6.40;;;5.80;;
9665;SDS011;4871;52.004;5.924;2023-04-24T02:50:04;6.40;;;5.80;;
9665;SDS011;4871;52.004;5.924;2023-04-24T02:51:00;6.40;;;5.80;;
9665;SDS011;4871;52.004;5.924;2023-04-24T02:52:03;11.10;;;9.90;;
9665;SDS011;4871;52.004;5.924;2023-04-24T02:53:00;11.10;;;9.90;;
9665;SDS011;4871;52.004;5.924;2023-04-24T02:54:04;11.10;;;9.90;;
9665;SDS011;4871;52.004;5.924;2023-04-24T02:55:00;11.10;;;9.90;;
9665;SDS011;4871;52.004;5.924;2023-04-24T02:56:03;11.10;;;9.90;;
9665;SDS011;4871;52.004;5.924;2023-04-24T02:57:01;11.10;;;9.90;;
9665;SDS011;4871;52.004;5.924;2023-04-24T02:58:03;11.10;;;9.90;;
9665;SDS011;4871;52.004;5.924;2023-04-24T02:59:00;11.10;;;9.90;;
9665;SDS011;4871;52.004;5.924;2023-04-24T03:00:07;11.10;;;9.90;;
9665;SDS011;4871;52.004;5.924;2023-04-24T03:01:00;11.10;;;9.90;;
9665;SDS011;4871;52.004;5.924;2023-04-24T03:02:05;11.10;;;9.90;;
9665;SDS011;4871;52.004;5.924;2023-04-24T03:03:00;11.10;;;9.90;;
9665;SDS011;4871;52.004;5.924;2023-04-24T03:04:03;11.10;;;9.90;;
9665;SDS011;4871;52.004;5.924;2023-04-24T03:05:00;11.10;;;9.90;;
9665;SDS011;4871;52.004;5.924;2023-04-24T03:06:05;11.10;;;9.90;;
9665;SDS011;4871;52.004;5.924;2023-04-24T03:07:01;11.10;;;9.90;;
9665;SDS011;4871;52.004;5.924;2023-04-24T03:08:06;11.10;;;9.90;;
9665;SDS011;4871;52.004;5.924;2023-04-24T03:09:00;11.10;;;9.90;;
9665;SDS011;4871;52.004;5.924;2023-04-24T03:10:04;11.10;;;9.90;;
9665;SDS011;4871;52.004;5.924;2023-04-24T03:11:00;11.10;;;9.90;;
9665;SDS011;4871;52.004;5.924;2023-04-24T03:12:04;11.10;;;9.90;;
9665;SDS011;4871;52.004;5.924;2023-04-24T03:13:00;11.10;;;9.90;;
9665;SDS011;4871;52.004;5.924;2023-04-24T03:14:04;11.10;;;9.90;;
9665;SDS011;4871;52.004;5.924;2023-04-24T03:15:00;11.10;;;9.90;;
9665;SDS011;4871;52.004;5.924;2023-04-24T03:16:03;11.10;;;9.90;;
9665;SDS011;4871;52.004;5.924;2023-04-24T03:17:00;11.10;;;9.90;;
9665;SDS011;4871;52.004;5.924;2023-04-24T03:18:04;11.10;;;9.90;;
9665;SDS011;4871;52.004;5.924;2023-04-24T03:19:00;11.10;;;9.90;;
9665;SDS011;4871;52.004;5.924;2023-04-24T03:20:06;11.10;;;9.90;;
9665;SDS011;4871;52.004;5.924;2023-04-24T03:21:00;11.10;;;9.90;;
9665;SDS011;4871;52.004;5.924;2023-04-24T03:22:04;9.50;;;8.50;;
9665;SDS011;4871;52.004;5.924;2023-04-24T03:23:00;9.50;;;8.50;;
9665;SDS011;4871;52.004;5.924;2023-04-24T03:24:03;9.50;;;8.50;;
9665;SDS011;4871;52.004;5.924;2023-04-24T03:25:00;9.50;;;8.50;;
9665;SDS011;4871;52.004;5.924;2023-04-24T03:26:05;9.50;;;8.50;;
9665;SDS011;4871;52.004;5.924;2023-04-24T03:27:00;9.50;;;8.50;;
9665;SDS011;4871;52.004;5.924;2023-04-24T03:28:03;9.50;;;8.50;;
9665;SDS011;4871;52.004;5.924;2023-04-24T03:29:00;9.50;;;8.50;;
9665;SDS011;4871;52.004;5.924;2023-04-24T03:30:06;9.50;;;8.50;;
9665;SDS011;4871;52.004;5.924;2023-04-24T03:31:00;9.50;;;8.50;;
9665;SDS011;4871;52.004;5.924;2023-04-24T03:32:04;9.50;;;8.50;;
9665;SDS011;4871;52.004;5.924;2023-04-24T03:33:00;9.50;;;8.50;;
9665;SDS011;4871;52.004;5.924;2023-04-24T03:34:06;9.50;;;8.50;;
9665;SDS011;4871;52.004;5.924;2023-04-24T03:35:00;9.50;;;8.50;;
9665;SDS011;4871;52.004;5.924;2023-04-24T03:36:04;9.50;;;8.50;;
9665;SDS011;4871;52.004;5.924;2023-04-24T03:37:00;9.50;;;8.50;;
9665;SDS011;4871;52.004;5.924;2023-04-24T03:38:04;9.50;;;8.50;;
9665;SDS011;4871;52.004;5.924;2023-04-24T03:39:00;9.50;;;8.50;;
9665;SDS011;4871;52.004;5.924;2023-04-24T03:40:04;9.50;;;8.50;;
9665;SDS011;4871;52.004;5.924;2023-04-24T03:41:00;9.50;;;8.50;;
9665;SDS011;4871;52.004;5.924;2023-04-24T03:42:04;9.50;;;8.50;;
9665;SDS011;4871;52.004;5.924;2023-04-24T03:43:00;9.50;;;8.50;;
9665;SDS011;4871;52.004;5.924;2023-04-24T03:44:04;9.50;;;8.50;;
9665;SDS011;4871;52.004;5.924;2023-04-24T03:45:00;9.50;;;8.50;;
9665;SDS011;4871;52.004;5.924;2023-04-24T03:46:03;9.50;;;8.50;;
9665;SDS011;4871;52.004;5.924;2023-04-24T03:47:00;9.50;;;8.50;;
9665;SDS011;4871;52.004;5.924;2023-04-24T03:48:04;9.50;;;8.50;;
9665;SDS011;4871;52.004;5.924;2023-04-24T03:49:00;9.50;;;8.50;;
9665;SDS011;4871;52.004;5.924;2023-04-24T03:50:04;9.50;;;8.50;;
9665;SDS011;4871;52.004;5.924;2023-04-24T03:51:00;9.50;;;8.50;;
9665;SDS011;4871;52.004;5.924;2023-04-24T03:52:03;11.30;;;10.20;;
9665;SDS011;4871;52.004;5.924;2023-04-24T03:53:00;11.30;;;10.20;;
9665;SDS011;4871;52.004;5.924;2023-04-24T03:54:05;11.30;;;10.20;;
9665;SDS011;4871;52.004;5.924;2023-04-24T03:55:00;11.30;;;10.20;;
9665;SDS011;4871;52.004;5.924;2023-04-24T03:56:03;11.30;;;10.20;;
9665;SDS011;4871;52.004;5.924;2023-04-24T03:57:01;11.30;;;10.20;;
9665;SDS011;4871;52.004;5.924;2023-04-24T03:58:03;11.30;;;10.20;;
9665;SDS011;4871;52.004;5.924;2023-04-24T03:59:00;11.30;;;10.20;;
9665;SDS011;4871;52.004;5.924;2023-04-24T04:00:05;11.30;;;10.20;;
9665;SDS011;4871;52.004;5.924;2023-04-24T04:01:00;11.30;;;10.20;;
9665;SDS011;4871;52.004;5.924;2023-04-24T04:02:05;11.30;;;10.20;;
9665;SDS011;4871;52.004;5.924;2023-04-24T04:03:00;11.30;;;10.20;;
9665;SDS011;4871;52.004;5.924;2023-04-24T04:04:03;11.30;;;10.20;;
9665;SDS011;4871;52.004;5.924;2023-04-24T04:05:00;11.30;;;10.20;;
9665;SDS011;4871;52.004;5.924;2023-04-24T04:06:04;11.30;;;10.20;;
9665;SDS011;4871;52.004;5.924;2023-04-24T04:07:02;11.30;;;10.20;;
9665;SDS011;4871;52.004;5.924;2023-04-24T04:08:04;11.30;;;10.20;;
9665;SDS011;4871;52.004;5.924;2023-04-24T04:09:00;11.30;;;10.20;;
9665;SDS011;4871;52.004;5.924;2023-04-24T04:10:05;11.30;;;10.20;;
9665;SDS011;4871;52.004;5.924;2023-04-24T04:11:00;11.30;;;10.20;;
9665;SDS011;4871;52.004;5.924;2023-04-24T04:12:04;11.30;;;10.20;;
9665;SDS011;4871;52.004;5.924;2023-04-24T04:13:00;11.30;;;10.20;;
9665;SDS011;4871;52.004;5.924;2023-04-24T04:14:05;11.30;;;10.20;;
9665;SDS011;4871;52.004;5.924;2023-04-24T04:15:00;11.30;;;10.20;;
9665;SDS011;4871;52.004;5.924;2023-04-24T04:16:03;11.30;;;10.20;;
9665;SDS011;4871;52.004;5.924;2023-04-24T04:17:00;11.30;;;10.20;;
9665;SDS011;4871;52.004;5.924;2023-04-24T04:18:05;11.30;;;10.20;;
9665;SDS011;4871;52.004;5.924;2023-04-24T04:19:00;11.30;;;10.20;;
9665;SDS011;4871;52.004;5.924;2023-04-24T04:20:07;11.30;;;10.20;;
9665;SDS011;4871;52.004;5.924;2023-04-24T04:21:01;11.30;;;10.20;;
9665;SDS011;4871;52.004;5.924;2023-04-24T04:22:04;16.20;;;12.60;;
9665;SDS011;4871;52.004;5.924;2023-04-24T04:23:00;16.20;;;12.60;;
9665;SDS011;4871;52.004;5.924;2023-04-24T04:24:05;16.20;;;12.60;;
9665;SDS011;4871;52.004;5.924;2023-04-24T04:25:00;16.20;;;12.60;;
9665;SDS011;4871;52.004;5.924;2023-04-24T04:26:05;16.20;;;12.60;;
9665;SDS011;4871;52.004;5.924;2023-04-24T04:27:00;16.20;;;12.60;;
9665;SDS011;4871;52.004;5.924;2023-04-24T04:28:04;16.20;;;12.60;;
9665;SDS011;4871;52.004;5.924;2023-04-24T04:29:03;16.20;;;12.60;;
9665;SDS011;4871;52.004;5.924;2023-04-24T04:30:05;16.20;;;12.60;;
9665;SDS011;4871;52.004;5.924;2023-04-24T04:31:00;16.20;;;12.60;;
9665;SDS011;4871;52.004;5.924;2023-04-24T04:32:04;16.20;;;12.60;;
9665;SDS011;4871;52.004;5.924;2023-04-24T04:33:00;16.20;;;12.60;;
9665;SDS011;4871;52.004;5.924;2023-04-24T04:34:03;16.20;;;12.60;;
9665;SDS011;4871;52.004;5.924;2023-04-24T04:35:03;16.20;;;12.60;;
9665;SDS011;4871;52.004;5.924;2023-04-24T04:36:05;16.20;;;12.60;;
9665;SDS011;4871;52.004;5.924;2023-04-24T04:37:01;16.20;;;12.60;;
9665;SDS011;4871;52.004;5.924;2023-04-24T04:38:08;16.20;;;12.60;;
9665;SDS011;4871;52.004;5.924;2023-04-24T04:39:00;16.20;;;12.60;;
9665;SDS011;4871;52.004;5.924;2023-04-24T04:40:07;16.20;;;12.60;;
9665;SDS011;4871;52.004;5.924;2023-04-24T04:41:00;16.20;;;12.60;;
9665;SDS011;4871;52.004;5.924;2023-04-24T04:42:03;16.20;;;12.60;;
9665;SDS011;4871;52.004;5.924;2023-04-24T04:43:00;16.20;;;12.60;;
9665;SDS011;4871;52.004;5.924;2023-04-24T04:44:04;16.20;;;12.60;;
9665;SDS011;4871;52.004;5.924;2023-04-24T04:45:00;16.20;;;12.60;;
9665;SDS011;4871;52.004;5.924;2023-04-24T04:46:04;16.20;;;12.60;;
9665;SDS011;4871;52.004;5.924;2023-04-24T04:47:00;16.20;;;12.60;;
9665;SDS011;4871;52.004;5.924;2023-04-24T04:48:04;16.20;;;12.60;;
9665;SDS011;4871;52.004;5.924;2023-04-24T04:49:00;16.20;;;12.60;;
9665;SDS011;4871;52.004;5.924;2023-04-24T04:50:05;16.20;;;12.60;;
9665;SDS011;4871;52.004;5.924;2023-04-24T04:51:00;16.20;;;12.60;;
9665;SDS011;4871;52.004;5.924;2023-04-24T04:52:05;14.70;;;12.20;;
9665;SDS011;4871;52.004;5.924;2023-04-24T04:53:00;14.70;;;12.20;;
9665;SDS011;4871;52.004;5.924;2023-04-24T04:54:04;14.70;;;12.20;;
9665;SDS011;4871;52.004;5.924;2023-04-24T04:55:00;14.70;;;12.20;;
9665;SDS011;4871;52.004;5.924;2023-04-24T04:56:05;14.70;;;12.20;;
9665;SDS011;4871;52.004;5.924;2023-04-24T04:57:00;14.70;;;12.20;;
9665;SDS011;4871;52.004;5.924;2023-04-24T04:58:03;14.70;;;12.20;;
9665;SDS011;4871;52.004;5.924;2023-04-24T04:59:00;14.70;;;12.20;;
9665;SDS011;4871;52.004;5.924;2023-04-24T05:00:05;14.70;;;12.20;;
9665;SDS011;4871;52.004;5.924;2023-04-24T05:01:00;14.70;;;12.20;;
9665;SDS011;4871;52.004;5.924;2023-04-24T05:02:04;14.70;;;12.20;;
9665;SDS011;4871;52.004;5.924;2023-04-24T05:03:00;14.70;;;12.20;;
9665;SDS011;4871;52.004;5.924;2023-04-24T05:04:05;14.70;;;12.20;;
9665;SDS011;4871;52.004;5.924;2023-04-24T05:05:00;14.70;;;12.20;;
9665;SDS011;4871;52.004;5.924;2023-04-24T05:06:05;14.70;;;12.20;;
9665;SDS011;4871;52.004;5.924;2023-04-24T05:07:00;14.70;;;12.20;;
9665;SDS011;4871;52.004;5.924;2023-04-24T05:08:04;14.70;;;12.20;;
9665;SDS011;4871;52.004;5.924;2023-04-24T05:09:00;14.70;;;12.20;;
9665;SDS011;4871;52.004;5.924;2023-04-24T05:10:05;14.70;;;12.20;;
9665;SDS011;4871;52.004;5.924;2023-04-24T05:11:00;14.70;;;12.20;;
9665;SDS011;4871;52.004;5.924;2023-04-24T05:12:04;14.70;;;12.20;;
9665;SDS011;4871;52.004;5.924;2023-04-24T05:13:00;14.70;;;12.20;;
9665;SDS011;4871;52.004;5.924;2023-04-24T05:14:03;14.70;;;12.20;;
9665;SDS011;4871;52.004;5.924;2023-04-24T05:15:00;14.70;;;12.20;;
9665;SDS011;4871;52.004;5.924;2023-04-24T05:16:04;14.70;;;12.20;;
9665;SDS011;4871;52.004;5.924;2023-04-24T05:17:00;14.70;;;12.20;;
9665;SDS011;4871;52.004;5.924;2023-04-24T05:18:05;14.70;;;12.20;;
9665;SDS011;4871;52.004;5.924;2023-04-24T05:19:00;14.70;;;12.20;;
9665;SDS011;4871;52.004;5.924;2023-04-24T05:20:05;14.70;;;12.20;;
9665;SDS011;4871;52.004;5.924;2023-04-24T05:21:00;14.70;;;12.20;;
9665;SDS011;4871;52.004;5.924;2023-04-24T05:22:06;11.20;;;10.10;;
9665;SDS011;4871;52.004;5.924;2023-04-24T05:23:00;11.20;;;10.10;;
9665;SDS011;4871;52.004;5.924;2023-04-24T05:24:04;11.20;;;10.10;;
9665;SDS011;4871;52.004;5.924;2023-04-24T05:25:00;11.20;;;10.10;;
9665;SDS011;4871;52.004;5.924;2023-04-24T05:26:04;11.20;;;10.10;;
9665;SDS011;4871;52.004;5.924;2023-04-24T05:27:00;11.20;;;10.10;;
9665;SDS011;4871;52.004;5.924;2023-04-24T05:28:05;11.20;;;10.10;;
9665;SDS011;4871;52.004;5.924;2023-04-24T05:29:00;11.20;;;10.10;;
9665;SDS011;4871;52.004;5.924;2023-04-24T05:30:05;11.20;;;10.10;;
9665;SDS011;4871;52.004;5.924;2023-04-24T05:31:01;11.20;;;10.10;;
9665;SDS011;4871;52.004;5.924;2023-04-24T05:32:04;11.20;;;10.10;;
9665;SDS011;4871;52.004;5.924;2023-04-24T05:33:00;11.20;;;10.10;;
9665;SDS011;4871;52.004;5.924;2023-04-24T05:34:05;11.20;;;10.10;;
9665;SDS011;4871;52.004;5.924;2023-04-24T05:35:00;11.20;;;10.10;;
9665;SDS011;4871;52.004;5.924;2023-04-24T05:36:05;11.20;;;10.10;;
9665;SDS011;4871;52.004;5.924;2023-04-24T05:37:00;11.20;;;10.10;;
9665;SDS011;4871;52.004;5.924;2023-04-24T05:38:04;11.20;;;10.10;;
9665;SDS011;4871;52.004;5.924;2023-04-24T05:39:00;11.20;;;10.10;;
9665;SDS011;4871;52.004;5.924;2023-04-24T05:40:05;11.20;;;10.10;;
9665;SDS011;4871;52.004;5.924;2023-04-24T05:41:00;11.20;;;10.10;;
9665;SDS011;4871;52.004;5.924;2023-04-24T05:42:06;11.20;;;10.10;;
9665;SDS011;4871;52.004;5.924;2023-04-24T05:43:00;11.20;;;10.10;;
9665;SDS011;4871;52.004;5.924;2023-04-24T05:44:03;11.20;;;10.10;;
9665;SDS011;4871;52.004;5.924;2023-04-24T05:45:00;11.20;;;10.10;;
9665;SDS011;4871;52.004;5.924;2023-04-24T05:46:04;11.20;;;10.10;;
9665;SDS011;4871;52.004;5.924;2023-04-24T05:47:00;11.20;;;10.10;;
9665;SDS011;4871;52.004;5.924;2023-04-24T05:48:05;11.20;;;10.10;;
9665;SDS011;4871;52.004;5.924;2023-04-24T05:49:00;11.20;;;10.10;;
9665;SDS011;4871;52.004;5.924;2023-04-24T05:50:06;11.20;;;10.10;;
9665;SDS011;4871;52.004;5.924;2023-04-24T05:51:00;11.20;;;10.10;;
9665;SDS011;4871;52.004;5.924;2023-04-24T05:52:05;9.30;;;8.40;;
9665;SDS011;4871;52.004;5.924;2023-04-24T05:53:01;9.30;;;8.40;;
9665;SDS011;4871;52.004;5.924;2023-04-24T05:54:04;9.30;;;8.40;;
9665;SDS011;4871;52.004;5.924;2023-04-24T05:55:00;9.30;;;8.40;;
9665;SDS011;4871;52.004;5.924;2023-04-24T05:56:04;9.30;;;8.40;;
9665;SDS011;4871;52.004;5.924;2023-04-24T05:57:04;9.30;;;8.40;;
9665;SDS011;4871;52.004;5.924;2023-04-24T05:58:05;9.30;;;8.40;;
9665;SDS011;4871;52.004;5.924;2023-04-24T05:59:00;9.30;;;8.40;;
9665;SDS011;4871;52.004;5.924;2023-04-24T06:00:05;9.30;;;8.40;;
9665;SDS011;4871;52.004;5.924;2023-04-24T06:01:01;9.30;;;8.40;;
9665;SDS011;4871;52.004;5.924;2023-04-24T06:02:05;9.30;;;8.40;;
9665;SDS011;4871;52.004;5.924;2023-04-24T06:03:00;9.30;;;8.40;;
9665;SDS011;4871;52.004;5.924;2023-04-24T06:04:04;9.30;;;8.40;;
9665;SDS011;4871;52.004;5.924;2023-04-24T06:05:00;9.30;;;8.40;;
9665;SDS011;4871;52.004;5.924;2023-04-24T06:06:05;9.30;;;8.40;;
9665;SDS011;4871;52.004;5.924;2023-04-24T06:07:00;9.30;;;8.40;;
9665;SDS011;4871;52.004;5.924;2023-04-24T06:08:04;9.30;;;8.40;;